sensor_id;sensor_type;location;lat;lon;timestamp;P1;durP1;ratioP1;P2;durP2;ratioP2
18933;SDS011;9599;53.706;10.384;2023-04-01T00:00:47;14.57;;;8.23;;
18933;SDS011;9599;53.706;10.384;2023-04-01T00:03:15;14.40;;;8.30;;
18933;SDS011;9599;53.706;10.384;2023-04-01T00:05:43;13.70;;;8.20;;
18933;SDS011;9599;53.706;10.384;2023-04-01T00:08:12;13.80;;;7.93;;
18933;SDS011;9599;53.706;10.384;2023-04-01T00:10:40;12.37;;;8.17;;
18933;SDS011;9599;53.706;10.384;2023-04-01T00:13:08;16.23;;;8.13;;
18933;SDS011;9599;53.706;10.384;2023-04-01T00:15:38;18.57;;;8.97;;
18933;SDS011;9599;53.706;10.384;2023-04-01T00:18:08;13.43;;;7.73;;
18933;SDS011;9599;53.706;10.384;2023-04-01T00:20:36;14.50;;;8.20;;
18933;SDS011;9599;53.706;10.384;2023-04-01T00:23:04;15.60;;;8.63;;
18933;SDS011;9599;53.706;10.384;2023-04-01T00:25:32;12.30;;;7.77;;
18933;SDS011;9599;53.706;10.384;2023-04-01T00:28:00;16.27;;;7.70;;
18933;SDS011;9599;53.706;10.384;2023-04-01T00:30:28;12.17;;;8.20;;
18933;SDS011;9599;53.706;10.384;2023-04-01T00:32:57;13.23;;;8.40;;
18933;SDS011;9599;53.706;10.384;2023-04-01T00:35:26;13.97;;;8.37;;
18933;SDS011;9599;53.706;10.384;2023-04-01T00:37:53;14.23;;;8.70;;
18933;SDS011;9599;53.706;10.384;2023-04-01T00:40:24;14.23;;;9.03;;
18933;SDS011;9599;53.706;10.384;2023-04-01T00:42:54;15.93;;;9.00;;
18933;SDS011;9599;53.706;10.384;2023-04-01T00:45:27;16.67;;;9.23;;
18933;SDS011;9599;53.706;10.384;2023-04-01T00:48:01;14.87;;;9.17;;
18933;SDS011;9599;53.706;10.384;2023-04-01T00:50:33;14.60;;;9.00;;
18933;SDS011;9599;53.706;10.384;2023-04-01T00:53:02;15.83;;;9.10;;
18933;SDS011;9599;53.706;10.384;2023-04-01T00:55:33;17.87;;;9.73;;
18933;SDS011;9599;53.706;10.384;2023-04-01T00:58:05;17.53;;;9.77;;
18933;SDS011;9599;53.706;10.384;2023-04-01T01:00:36;17.63;;;9.40;;
18933;SDS011;9599;53.706;10.384;2023-04-01T01:03:06;18.43;;;9.77;;
18933;SDS011;9599;53.706;10.384;2023-04-01T01:05:38;16.03;;;9.30;;
18933;SDS011;9599;53.706;10.384;2023-04-01T01:08:28;16.53;;;9.83;;
18933;SDS011;9599;53.706;10.384;2023-04-01T01:11:07;17.47;;;9.80;;
18933;SDS011;9599;53.706;10.384;2023-04-01T01:13:40;17.20;;;10.13;;
18933;SDS011;9599;53.706;10.384;2023-04-01T01:16:14;20.67;;;10.40;;
18933;SDS011;9599;53.706;10.384;2023-04-01T01:18:48;17.90;;;9.70;;
18933;SDS011;9599;53.706;10.384;2023-04-01T01:21:29;17.00;;;10.00;;
18933;SDS011;9599;53.706;10.384;2023-04-01T01:27:04;17.70;;;9.83;;
18933;SDS011;9599;53.706;10.384;2023-04-01T01:32:36;17.60;;;9.57;;
18933;SDS011;9599;53.706;10.384;2023-04-01T01:35:20;20.57;;;10.50;;
18933;SDS011;9599;53.706;10.384;2023-04-01T01:37:52;18.13;;;9.70;;
18933;SDS011;9599;53.706;10.384;2023-04-01T01:40:23;17.13;;;10.20;;
18933;SDS011;9599;53.706;10.384;2023-04-01T01:42:54;18.07;;;10.70;;
18933;SDS011;9599;53.706;10.384;2023-04-01T01:45:26;19.10;;;11.17;;
18933;SDS011;9599;53.706;10.384;2023-04-01T01:47:55;21.03;;;11.00;;
18933;SDS011;9599;53.706;10.384;2023-04-01T01:50:26;20.47;;;11.13;;
18933;SDS011;9599;53.706;10.384;2023-04-01T01:53:05;18.40;;;10.47;;
18933;SDS011;9599;53.706;10.384;2023-04-01T01:55:36;21.73;;;11.03;;
18933;SDS011;9599;53.706;10.384;2023-04-01T01:58:08;19.37;;;10.63;;
18933;SDS011;9599;53.706;10.384;2023-04-01T02:00:41;19.23;;;10.43;;
18933;SDS011;9599;53.706;10.384;2023-04-01T02:03:13;15.43;;;10.10;;
18933;SDS011;9599;53.706;10.384;2023-04-01T02:05:45;17.07;;;10.20;;
18933;SDS011;9599;53.706;10.384;2023-04-01T02:08:15;19.47;;;10.77;;
18933;SDS011;9599;53.706;10.384;2023-04-01T02:10:49;19.37;;;10.33;;
18933;SDS011;9599;53.706;10.384;2023-04-01T02:13:27;18.63;;;10.80;;
18933;SDS011;9599;53.706;10.384;2023-04-01T02:15:59;17.83;;;10.00;;
18933;SDS011;9599;53.706;10.384;2023-04-01T02:18:31;17.60;;;10.20;;
18933;SDS011;9599;53.706;10.384;2023-04-01T02:21:03;17.60;;;10.47;;
18933;SDS011;9599;53.706;10.384;2023-04-01T02:23:34;17.10;;;10.23;;
18933;SDS011;9599;53.706;10.384;2023-04-01T02:26:05;18.60;;;10.67;;
18933;SDS011;9599;53.706;10.384;2023-04-01T02:28:34;15.30;;;9.67;;
18933;SDS011;9599;53.706;10.384;2023-04-01T02:31:06;20.10;;;11.10;;
18933;SDS011;9599;53.706;10.384;2023-04-01T02:33:37;21.73;;;11.37;;
18933;SDS011;9599;53.706;10.384;2023-04-01T02:36:08;24.00;;;11.30;;
18933;SDS011;9599;53.706;10.384;2023-04-01T02:38:39;19.17;;;10.80;;
18933;SDS011;9599;53.706;10.384;2023-04-01T02:41:08;19.67;;;11.47;;
18933;SDS011;9599;53.706;10.384;2023-04-01T02:43:36;18.47;;;11.33;;
18933;SDS011;9599;53.706;10.384;2023-04-01T02:46:04;18.50;;;10.63;;
18933;SDS011;9599;53.706;10.384;2023-04-01T02:48:32;19.33;;;11.57;;
18933;SDS011;9599;53.706;10.384;2023-04-01T02:51:00;24.00;;;11.87;;
18933;SDS011;9599;53.706;10.384;2023-04-01T02:53:30;23.83;;;12.60;;
18933;SDS011;9599;53.706;10.384;2023-04-01T02:55:58;19.20;;;10.87;;
18933;SDS011;9599;53.706;10.384;2023-04-01T02:58:26;22.83;;;11.33;;
18933;SDS011;9599;53.706;10.384;2023-04-01T03:00:55;22.37;;;11.67;;
18933;SDS011;9599;53.706;10.384;2023-04-01T03:03:23;22.07;;;11.33;;
18933;SDS011;9599;53.706;10.384;2023-04-01T03:05:52;19.67;;;11.50;;
18933;SDS011;9599;53.706;10.384;2023-04-01T03:08:22;22.17;;;11.67;;
18933;SDS011;9599;53.706;10.384;2023-04-01T03:10:51;19.53;;;11.07;;
18933;SDS011;9599;53.706;10.384;2023-04-01T03:13:19;23.30;;;11.37;;
18933;SDS011;9599;53.706;10.384;2023-04-01T03:15:47;21.10;;;11.10;;
18933;SDS011;9599;53.706;10.384;2023-04-01T03:18:15;19.43;;;11.60;;
18933;SDS011;9599;53.706;10.384;2023-04-01T03:20:43;21.17;;;11.13;;
18933;SDS011;9599;53.706;10.384;2023-04-01T03:23:11;19.97;;;11.83;;
18933;SDS011;9599;53.706;10.384;2023-04-01T03:25:39;21.77;;;11.47;;
18933;SDS011;9599;53.706;10.384;2023-04-01T03:28:08;22.23;;;11.87;;
18933;SDS011;9599;53.706;10.384;2023-04-01T03:30:36;20.50;;;11.57;;
18933;SDS011;9599;53.706;10.384;2023-04-01T03:33:04;20.00;;;11.90;;
18933;SDS011;9599;53.706;10.384;2023-04-01T03:35:32;21.97;;;11.77;;
18933;SDS011;9599;53.706;10.384;2023-04-01T03:38:02;20.33;;;12.33;;
18933;SDS011;9599;53.706;10.384;2023-04-01T03:40:30;19.63;;;12.07;;
18933;SDS011;9599;53.706;10.384;2023-04-01T03:42:59;22.43;;;13.17;;
18933;SDS011;9599;53.706;10.384;2023-04-01T03:45:28;21.17;;;12.50;;
18933;SDS011;9599;53.706;10.384;2023-04-01T03:47:57;26.13;;;13.17;;
18933;SDS011;9599;53.706;10.384;2023-04-01T03:50:25;19.30;;;12.07;;
18933;SDS011;9599;53.706;10.384;2023-04-01T03:52:52;20.10;;;11.57;;
18933;SDS011;9599;53.706;10.384;2023-04-01T03:55:20;20.00;;;11.43;;
18933;SDS011;9599;53.706;10.384;2023-04-01T03:57:48;4.60;;;3.00;;
18933;SDS011;9599;53.706;10.384;2023-04-01T04:00:17;5.10;;;3.10;;
18933;SDS011;9599;53.706;10.384;2023-04-01T04:02:53;4.83;;;3.50;;
18933;SDS011;9599;53.706;10.384;2023-04-01T04:05:28;5.17;;;3.00;;
18933;SDS011;9599;53.706;10.384;2023-04-01T04:07:57;4.17;;;3.00;;
18933;SDS011;9599;53.706;10.384;2023-04-01T04:10:25;5.10;;;3.00;;
18933;SDS011;9599;53.706;10.384;2023-04-01T04:12:55;4.17;;;3.03;;
18933;SDS011;9599;53.706;10.384;2023-04-01T04:15:27;5.57;;;3.40;;
18933;SDS011;9599;53.706;10.384;2023-04-01T04:17:56;5.13;;;3.67;;
18933;SDS011;9599;53.706;10.384;2023-04-01T04:20:24;7.43;;;3.60;;
18933;SDS011;9599;53.706;10.384;2023-04-01T04:22:52;6.70;;;3.97;;
18933;SDS011;9599;53.706;10.384;2023-04-01T04:25:20;5.90;;;3.67;;
18933;SDS011;9599;53.706;10.384;2023-04-01T04:27:48;6.40;;;4.20;;
18933;SDS011;9599;53.706;10.384;2023-04-01T04:30:16;5.97;;;3.53;;
18933;SDS011;9599;53.706;10.384;2023-04-01T04:32:45;5.30;;;3.63;;
18933;SDS011;9599;53.706;10.384;2023-04-01T04:35:14;5.80;;;3.90;;
18933;SDS011;9599;53.706;10.384;2023-04-01T04:37:42;4.63;;;3.53;;
18933;SDS011;9599;53.706;10.384;2023-04-01T04:40:10;5.73;;;3.40;;
18933;SDS011;9599;53.706;10.384;2023-04-01T04:42:40;6.10;;;4.00;;
18933;SDS011;9599;53.706;10.384;2023-04-01T04:45:11;4.20;;;3.53;;
18933;SDS011;9599;53.706;10.384;2023-04-01T04:47:46;4.07;;;2.67;;
18933;SDS011;9599;53.706;10.384;2023-04-01T04:50:15;4.23;;;2.97;;
18933;SDS011;9599;53.706;10.384;2023-04-01T04:52:43;4.37;;;2.80;;
18933;SDS011;9599;53.706;10.384;2023-04-01T04:55:11;5.07;;;3.00;;
18933;SDS011;9599;53.706;10.384;2023-04-01T04:57:43;4.53;;;3.10;;
18933;SDS011;9599;53.706;10.384;2023-04-01T05:00:12;3.17;;;2.63;;
18933;SDS011;9599;53.706;10.384;2023-04-01T05:03:01;9.00;;;4.10;;
18933;SDS011;9599;53.706;10.384;2023-04-01T05:05:30;3.37;;;2.87;;
18933;SDS011;9599;53.706;10.384;2023-04-01T05:07:59;3.47;;;2.60;;
18933;SDS011;9599;53.706;10.384;2023-04-01T05:10:28;3.00;;;2.63;;
18933;SDS011;9599;53.706;10.384;2023-04-01T05:12:56;3.00;;;2.70;;
18933;SDS011;9599;53.706;10.384;2023-04-01T05:15:25;3.13;;;2.60;;
18933;SDS011;9599;53.706;10.384;2023-04-01T05:17:54;3.27;;;2.73;;
18933;SDS011;9599;53.706;10.384;2023-04-01T05:20:23;3.00;;;2.70;;
18933;SDS011;9599;53.706;10.384;2023-04-01T05:22:56;4.07;;;3.10;;
18933;SDS011;9599;53.706;10.384;2023-04-01T05:25:24;3.30;;;2.57;;
18933;SDS011;9599;53.706;10.384;2023-04-01T05:27:53;3.63;;;2.80;;
18933;SDS011;9599;53.706;10.384;2023-04-01T05:30:21;3.63;;;2.50;;
18933;SDS011;9599;53.706;10.384;2023-04-01T05:33:09;3.30;;;2.50;;
18933;SDS011;9599;53.706;10.384;2023-04-01T05:35:38;2.47;;;2.00;;
18933;SDS011;9599;53.706;10.384;2023-04-01T05:38:08;2.60;;;2.23;;
18933;SDS011;9599;53.706;10.384;2023-04-01T05:40:36;3.27;;;2.10;;
18933;SDS011;9599;53.706;10.384;2023-04-01T05:43:04;3.30;;;2.50;;
18933;SDS011;9599;53.706;10.384;2023-04-01T05:45:32;2.30;;;2.10;;
18933;SDS011;9599;53.706;10.384;2023-04-01T05:48:13;2.40;;;2.17;;
18933;SDS011;9599;53.706;10.384;2023-04-01T05:50:41;2.60;;;2.17;;
18933;SDS011;9599;53.706;10.384;2023-04-01T05:53:12;2.57;;;2.37;;
18933;SDS011;9599;53.706;10.384;2023-04-01T05:55:42;2.97;;;2.20;;
18933;SDS011;9599;53.706;10.384;2023-04-01T05:58:10;2.83;;;1.90;;
18933;SDS011;9599;53.706;10.384;2023-04-01T06:00:41;3.23;;;2.67;;
18933;SDS011;9599;53.706;10.384;2023-04-01T06:03:10;4.23;;;2.60;;
18933;SDS011;9599;53.706;10.384;2023-04-01T06:05:39;4.07;;;2.80;;
18933;SDS011;9599;53.706;10.384;2023-04-01T06:08:09;3.43;;;2.50;;
18933;SDS011;9599;53.706;10.384;2023-04-01T06:10:49;4.60;;;2.67;;
18933;SDS011;9599;53.706;10.384;2023-04-01T06:13:37;6.03;;;3.83;;
18933;SDS011;9599;53.706;10.384;2023-04-01T06:16:19;3.23;;;2.50;;
18933;SDS011;9599;53.706;10.384;2023-04-01T06:19:02;3.77;;;2.00;;
18933;SDS011;9599;53.706;10.384;2023-04-01T06:25:03;2.70;;;2.20;;
18933;SDS011;9599;53.706;10.384;2023-04-01T06:28:05;2.13;;;1.93;;
18933;SDS011;9599;53.706;10.384;2023-04-01T06:30:47;1.97;;;1.77;;
18933;SDS011;9599;53.706;10.384;2023-04-01T06:33:32;2.13;;;1.93;;
18933;SDS011;9599;53.706;10.384;2023-04-01T06:36:16;2.77;;;2.10;;
18933;SDS011;9599;53.706;10.384;2023-04-01T06:45:30;2.90;;;2.10;;
18933;SDS011;9599;53.706;10.384;2023-04-01T06:48:39;3.27;;;2.40;;
18933;SDS011;9599;53.706;10.384;2023-04-01T06:51:39;3.53;;;2.80;;
18933;SDS011;9599;53.706;10.384;2023-04-01T06:54:34;3.13;;;2.70;;
18933;SDS011;9599;53.706;10.384;2023-04-01T06:57:08;2.10;;;1.90;;
18933;SDS011;9599;53.706;10.384;2023-04-01T06:59:47;3.13;;;1.40;;
18933;SDS011;9599;53.706;10.384;2023-04-01T07:02:19;3.40;;;2.00;;
18933;SDS011;9599;53.706;10.384;2023-04-01T07:04:53;2.43;;;1.87;;
18933;SDS011;9599;53.706;10.384;2023-04-01T07:07:24;2.53;;;2.00;;
18933;SDS011;9599;53.706;10.384;2023-04-01T07:10:02;4.63;;;2.20;;
18933;SDS011;9599;53.706;10.384;2023-04-01T07:12:56;2.60;;;2.40;;
18933;SDS011;9599;53.706;10.384;2023-04-01T07:15:51;2.90;;;2.40;;
18933;SDS011;9599;53.706;10.384;2023-04-01T07:18:30;3.67;;;2.00;;
18933;SDS011;9599;53.706;10.384;2023-04-01T07:21:03;2.13;;;1.60;;
18933;SDS011;9599;53.706;10.384;2023-04-01T07:23:38;1.93;;;1.73;;
18933;SDS011;9599;53.706;10.384;2023-04-01T07:26:29;3.23;;;1.97;;
18933;SDS011;9599;53.706;10.384;2023-04-01T07:29:09;2.20;;;2.00;;
18933;SDS011;9599;53.706;10.384;2023-04-01T07:32:07;2.33;;;2.00;;
18933;SDS011;9599;53.706;10.384;2023-04-01T07:34:47;2.10;;;1.80;;
18933;SDS011;9599;53.706;10.384;2023-04-01T07:37:26;2.80;;;1.87;;
18933;SDS011;9599;53.706;10.384;2023-04-01T07:40:01;2.67;;;2.10;;
18933;SDS011;9599;53.706;10.384;2023-04-01T07:42:45;2.47;;;2.20;;
18933;SDS011;9599;53.706;10.384;2023-04-01T07:45:27;2.73;;;2.10;;
18933;SDS011;9599;53.706;10.384;2023-04-01T07:48:04;2.00;;;1.80;;
18933;SDS011;9599;53.706;10.384;2023-04-01T07:50:40;2.40;;;2.00;;
18933;SDS011;9599;53.706;10.384;2023-04-01T07:53:16;2.57;;;1.97;;
18933;SDS011;9599;53.706;10.384;2023-04-01T07:55:55;2.60;;;2.13;;
18933;SDS011;9599;53.706;10.384;2023-04-01T07:58:34;2.80;;;2.47;;
18933;SDS011;9599;53.706;10.384;2023-04-01T08:01:19;2.40;;;1.90;;
18933;SDS011;9599;53.706;10.384;2023-04-01T08:04:03;3.33;;;2.60;;
18933;SDS011;9599;53.706;10.384;2023-04-01T08:06:42;3.20;;;2.50;;
18933;SDS011;9599;53.706;10.384;2023-04-01T08:09:19;3.37;;;2.10;;
18933;SDS011;9599;53.706;10.384;2023-04-01T08:12:17;3.40;;;2.33;;
18933;SDS011;9599;53.706;10.384;2023-04-01T08:15:04;2.50;;;2.27;;
18933;SDS011;9599;53.706;10.384;2023-04-01T08:17:55;3.07;;;2.10;;
18933;SDS011;9599;53.706;10.384;2023-04-01T08:20:32;3.37;;;2.40;;
18933;SDS011;9599;53.706;10.384;2023-04-01T08:23:07;2.70;;;2.30;;
18933;SDS011;9599;53.706;10.384;2023-04-01T08:25:43;3.10;;;2.20;;
18933;SDS011;9599;53.706;10.384;2023-04-01T08:28:17;3.33;;;2.10;;
18933;SDS011;9599;53.706;10.384;2023-04-01T08:30:52;2.77;;;2.03;;
18933;SDS011;9599;53.706;10.384;2023-04-01T08:33:24;1.80;;;1.60;;
18933;SDS011;9599;53.706;10.384;2023-04-01T08:36:03;1.83;;;1.73;;
18933;SDS011;9599;53.706;10.384;2023-04-01T08:38:38;3.97;;;1.80;;
18933;SDS011;9599;53.706;10.384;2023-04-01T08:41:22;2.00;;;1.80;;
18933;SDS011;9599;53.706;10.384;2023-04-01T08:45:05;2.83;;;1.60;;
18933;SDS011;9599;53.706;10.384;2023-04-01T08:47:51;2.53;;;1.90;;
18933;SDS011;9599;53.706;10.384;2023-04-01T08:50:41;1.70;;;1.47;;
18933;SDS011;9599;53.706;10.384;2023-04-01T08:53:36;2.73;;;1.70;;
18933;SDS011;9599;53.706;10.384;2023-04-01T08:56:25;3.83;;;2.00;;
18933;SDS011;9599;53.706;10.384;2023-04-01T08:59:13;2.00;;;1.80;;
18933;SDS011;9599;53.706;10.384;2023-04-01T09:02:04;2.10;;;1.80;;
18933;SDS011;9599;53.706;10.384;2023-04-01T09:04:59;2.73;;;1.90;;
18933;SDS011;9599;53.706;10.384;2023-04-01T09:08:01;1.87;;;1.60;;
18933;SDS011;9599;53.706;10.384;2023-04-01T09:10:52;1.93;;;1.70;;
18933;SDS011;9599;53.706;10.384;2023-04-01T09:14:05;2.17;;;1.73;;
18933;SDS011;9599;53.706;10.384;2023-04-01T09:17:24;2.00;;;1.70;;
18933;SDS011;9599;53.706;10.384;2023-04-01T09:20:08;2.20;;;1.67;;
18933;SDS011;9599;53.706;10.384;2023-04-01T09:22:50;1.53;;;1.43;;
18933;SDS011;9599;53.706;10.384;2023-04-01T09:25:37;1.80;;;1.70;;
18933;SDS011;9599;53.706;10.384;2023-04-01T09:28:16;2.10;;;1.80;;
18933;SDS011;9599;53.706;10.384;2023-04-01T09:34:17;2.97;;;2.40;;
18933;SDS011;9599;53.706;10.384;2023-04-01T09:37:17;3.40;;;1.53;;
18933;SDS011;9599;53.706;10.384;2023-04-01T09:40:01;1.60;;;1.40;;
18933;SDS011;9599;53.706;10.384;2023-04-01T09:42:45;1.67;;;1.57;;
18933;SDS011;9599;53.706;10.384;2023-04-01T09:45:32;1.67;;;1.20;;
18933;SDS011;9599;53.706;10.384;2023-04-01T09:48:24;1.50;;;1.20;;
18933;SDS011;9599;53.706;10.384;2023-04-01T09:51:10;2.40;;;1.47;;
18933;SDS011;9599;53.706;10.384;2023-04-01T09:53:50;1.80;;;1.40;;
18933;SDS011;9599;53.706;10.384;2023-04-01T10:00:13;1.40;;;1.30;;
18933;SDS011;9599;53.706;10.384;2023-04-01T10:09:23;1.50;;;1.40;;
18933;SDS011;9599;53.706;10.384;2023-04-01T10:12:39;2.47;;;1.60;;
18933;SDS011;9599;53.706;10.384;2023-04-01T10:25:07;1.50;;;1.40;;
18933;SDS011;9599;53.706;10.384;2023-04-01T10:28:00;1.70;;;1.60;;
18933;SDS011;9599;53.706;10.384;2023-04-01T10:31:10;2.60;;;1.43;;
18933;SDS011;9599;53.706;10.384;2023-04-01T10:34:14;1.73;;;1.33;;
18933;SDS011;9599;53.706;10.384;2023-04-01T10:36:59;2.50;;;1.80;;
18933;SDS011;9599;53.706;10.384;2023-04-01T10:43:30;2.87;;;2.00;;
18933;SDS011;9599;53.706;10.384;2023-04-01T10:46:32;2.83;;;2.00;;
18933;SDS011;9599;53.706;10.384;2023-04-01T10:52:40;3.13;;;2.20;;
18933;SDS011;9599;53.706;10.384;2023-04-01T10:55:44;3.27;;;2.30;;
18933;SDS011;9599;53.706;10.384;2023-04-01T10:58:51;4.40;;;3.03;;
18933;SDS011;9599;53.706;10.384;2023-04-01T11:08:50;3.40;;;2.90;;
18933;SDS011;9599;53.706;10.384;2023-04-01T11:17:51;3.97;;;3.17;;
18933;SDS011;9599;53.706;10.384;2023-04-01T11:24:00;3.20;;;2.63;;
18933;SDS011;9599;53.706;10.384;2023-04-01T11:26:57;5.17;;;3.20;;
18933;SDS011;9599;53.706;10.384;2023-04-01T11:29:47;5.30;;;2.93;;
18933;SDS011;9599;53.706;10.384;2023-04-01T11:32:34;5.27;;;3.70;;
18933;SDS011;9599;53.706;10.384;2023-04-01T11:35:22;6.57;;;3.90;;
18933;SDS011;9599;53.706;10.384;2023-04-01T11:38:05;4.23;;;3.10;;
18933;SDS011;9599;53.706;10.384;2023-04-01T11:41:10;3.20;;;2.17;;
18933;SDS011;9599;53.706;10.384;2023-04-01T11:44:20;4.70;;;3.40;;
18933;SDS011;9599;53.706;10.384;2023-04-01T11:47:03;7.07;;;4.37;;
18933;SDS011;9599;53.706;10.384;2023-04-01T11:49:49;6.27;;;3.83;;
18933;SDS011;9599;53.706;10.384;2023-04-01T11:55:45;6.40;;;4.37;;
18933;SDS011;9599;53.706;10.384;2023-04-01T11:58:25;6.53;;;4.10;;
18933;SDS011;9599;53.706;10.384;2023-04-01T12:01:20;5.43;;;4.07;;
18933;SDS011;9599;53.706;10.384;2023-04-01T12:04:05;5.23;;;3.83;;
18933;SDS011;9599;53.706;10.384;2023-04-01T12:06:54;5.13;;;3.83;;
18933;SDS011;9599;53.706;10.384;2023-04-01T12:09:34;4.60;;;3.20;;
18933;SDS011;9599;53.706;10.384;2023-04-01T12:12:12;5.30;;;3.63;;
18933;SDS011;9599;53.706;10.384;2023-04-01T12:14:49;5.67;;;3.40;;
18933;SDS011;9599;53.706;10.384;2023-04-01T12:17:28;5.47;;;3.43;;
18933;SDS011;9599;53.706;10.384;2023-04-01T12:20:04;5.60;;;4.10;;
18933;SDS011;9599;53.706;10.384;2023-04-01T12:22:49;5.40;;;4.17;;
18933;SDS011;9599;53.706;10.384;2023-04-01T12:25:52;7.00;;;4.87;;
18933;SDS011;9599;53.706;10.384;2023-04-01T12:28:41;8.30;;;5.30;;
18933;SDS011;9599;53.706;10.384;2023-04-01T12:31:25;11.37;;;6.23;;
18933;SDS011;9599;53.706;10.384;2023-04-01T12:34:19;8.97;;;5.73;;
18933;SDS011;9599;53.706;10.384;2023-04-01T12:37:03;8.03;;;4.90;;
18933;SDS011;9599;53.706;10.384;2023-04-01T12:39:47;6.30;;;4.70;;
18933;SDS011;9599;53.706;10.384;2023-04-01T12:42:32;8.10;;;4.43;;
18933;SDS011;9599;53.706;10.384;2023-04-01T12:45:17;6.83;;;4.47;;
18933;SDS011;9599;53.706;10.384;2023-04-01T12:48:21;9.93;;;4.10;;
18933;SDS011;9599;53.706;10.384;2023-04-01T12:51:03;5.43;;;3.90;;
18933;SDS011;9599;53.706;10.384;2023-04-01T12:53:55;4.43;;;3.33;;
18933;SDS011;9599;53.706;10.384;2023-04-01T12:56:50;6.47;;;3.50;;
18933;SDS011;9599;53.706;10.384;2023-04-01T12:59:38;7.70;;;4.17;;
18933;SDS011;9599;53.706;10.384;2023-04-01T13:02:24;9.17;;;5.33;;
18933;SDS011;9599;53.706;10.384;2023-04-01T13:05:20;6.23;;;4.10;;
18933;SDS011;9599;53.706;10.384;2023-04-01T13:08:11;6.57;;;4.83;;
18933;SDS011;9599;53.706;10.384;2023-04-01T13:11:00;7.87;;;5.50;;
18933;SDS011;9599;53.706;10.384;2023-04-01T13:13:44;9.70;;;5.60;;
18933;SDS011;9599;53.706;10.384;2023-04-01T13:16:38;8.67;;;4.87;;
18933;SDS011;9599;53.706;10.384;2023-04-01T13:19:12;6.07;;;4.63;;
18933;SDS011;9599;53.706;10.384;2023-04-01T13:21:49;4.53;;;3.67;;
18933;SDS011;9599;53.706;10.384;2023-04-01T13:24:24;6.33;;;4.60;;
18933;SDS011;9599;53.706;10.384;2023-04-01T13:27:05;5.63;;;4.03;;
18933;SDS011;9599;53.706;10.384;2023-04-01T13:29:40;8.37;;;5.43;;
18933;SDS011;9599;53.706;10.384;2023-04-01T13:32:15;5.37;;;3.93;;
18933;SDS011;9599;53.706;10.384;2023-04-01T13:35:16;6.17;;;4.10;;
18933;SDS011;9599;53.706;10.384;2023-04-01T13:37:57;5.63;;;4.80;;
18933;SDS011;9599;53.706;10.384;2023-04-01T13:40:39;9.60;;;5.13;;
18933;SDS011;9599;53.706;10.384;2023-04-01T13:43:29;7.90;;;5.60;;
18933;SDS011;9599;53.706;10.384;2023-04-01T13:46:08;8.97;;;5.53;;
18933;SDS011;9599;53.706;10.384;2023-04-01T13:48:53;8.10;;;5.60;;
18933;SDS011;9599;53.706;10.384;2023-04-01T13:51:43;9.20;;;5.30;;
18933;SDS011;9599;53.706;10.384;2023-04-01T13:54:46;7.50;;;4.83;;
18933;SDS011;9599;53.706;10.384;2023-04-01T13:57:35;8.33;;;4.87;;
18933;SDS011;9599;53.706;10.384;2023-04-01T14:00:20;7.63;;;5.30;;
18933;SDS011;9599;53.706;10.384;2023-04-01T14:02:57;12.93;;;6.20;;
18933;SDS011;9599;53.706;10.384;2023-04-01T14:05:44;9.90;;;4.90;;
18933;SDS011;9599;53.706;10.384;2023-04-01T14:08:23;8.87;;;5.43;;
18933;SDS011;9599;53.706;10.384;2023-04-01T14:11:06;10.70;;;5.70;;
18933;SDS011;9599;53.706;10.384;2023-04-01T14:13:46;11.80;;;6.07;;
18933;SDS011;9599;53.706;10.384;2023-04-01T14:16:28;7.43;;;5.50;;
18933;SDS011;9599;53.706;10.384;2023-04-01T14:22:28;6.50;;;4.80;;
18933;SDS011;9599;53.706;10.384;2023-04-01T14:25:10;12.30;;;5.37;;
18933;SDS011;9599;53.706;10.384;2023-04-01T14:28:04;11.17;;;5.27;;
18933;SDS011;9599;53.706;10.384;2023-04-01T14:30:54;13.03;;;5.63;;
18933;SDS011;9599;53.706;10.384;2023-04-01T14:33:38;6.90;;;4.60;;
18933;SDS011;9599;53.706;10.384;2023-04-01T14:36:22;8.13;;;5.43;;
18933;SDS011;9599;53.706;10.384;2023-04-01T14:39:00;6.83;;;5.27;;
18933;SDS011;9599;53.706;10.384;2023-04-01T14:41:44;10.50;;;5.53;;
18933;SDS011;9599;53.706;10.384;2023-04-01T14:44:21;9.67;;;5.40;;
18933;SDS011;9599;53.706;10.384;2023-04-01T14:47:09;9.07;;;5.07;;
18933;SDS011;9599;53.706;10.384;2023-04-01T14:49:52;7.63;;;4.70;;
18933;SDS011;9599;53.706;10.384;2023-04-01T14:52:31;9.37;;;5.67;;
18933;SDS011;9599;53.706;10.384;2023-04-01T14:55:00;10.13;;;5.97;;
18933;SDS011;9599;53.706;10.384;2023-04-01T14:57:38;7.60;;;4.57;;
18933;SDS011;9599;53.706;10.384;2023-04-01T15:00:12;9.83;;;5.37;;
18933;SDS011;9599;53.706;10.384;2023-04-01T15:02:46;10.40;;;5.40;;
18933;SDS011;9599;53.706;10.384;2023-04-01T15:05:27;9.60;;;4.73;;
18933;SDS011;9599;53.706;10.384;2023-04-01T15:08:08;10.07;;;6.30;;
18933;SDS011;9599;53.706;10.384;2023-04-01T15:13:40;13.80;;;5.80;;
18933;SDS011;9599;53.706;10.384;2023-04-01T15:16:25;7.20;;;4.70;;
18933;SDS011;9599;53.706;10.384;2023-04-01T15:19:01;9.97;;;5.70;;
18933;SDS011;9599;53.706;10.384;2023-04-01T15:21:39;11.80;;;6.10;;
18933;SDS011;9599;53.706;10.384;2023-04-01T15:24:24;11.53;;;6.27;;
18933;SDS011;9599;53.706;10.384;2023-04-01T15:26:58;6.70;;;4.57;;
18933;SDS011;9599;53.706;10.384;2023-04-01T15:29:43;10.40;;;5.80;;
18933;SDS011;9599;53.706;10.384;2023-04-01T15:32:53;8.53;;;5.93;;
18933;SDS011;9599;53.706;10.384;2023-04-01T15:35:42;7.60;;;5.10;;
18933;SDS011;9599;53.706;10.384;2023-04-01T15:38:20;4.83;;;4.07;;
18933;SDS011;9599;53.706;10.384;2023-04-01T15:40:56;8.00;;;4.83;;
18933;SDS011;9599;53.706;10.384;2023-04-01T15:43:33;7.43;;;4.53;;
18933;SDS011;9599;53.706;10.384;2023-04-01T15:49:13;10.17;;;5.87;;
18933;SDS011;9599;53.706;10.384;2023-04-01T15:51:54;8.57;;;4.90;;
18933;SDS011;9599;53.706;10.384;2023-04-01T15:54:37;7.17;;;4.93;;
18933;SDS011;9599;53.706;10.384;2023-04-01T15:57:26;6.00;;;3.87;;
18933;SDS011;9599;53.706;10.384;2023-04-01T16:00:09;8.83;;;5.57;;
18933;SDS011;9599;53.706;10.384;2023-04-01T16:02:51;11.27;;;5.40;;
18933;SDS011;9599;53.706;10.384;2023-04-01T16:05:33;7.73;;;4.77;;
18933;SDS011;9599;53.706;10.384;2023-04-01T16:11:18;13.00;;;5.87;;
18933;SDS011;9599;53.706;10.384;2023-04-01T16:13:59;8.03;;;5.07;;
18933;SDS011;9599;53.706;10.384;2023-04-01T16:16:43;9.93;;;4.87;;
18933;SDS011;9599;53.706;10.384;2023-04-01T16:19:28;9.97;;;5.00;;
18933;SDS011;9599;53.706;10.384;2023-04-01T16:22:06;9.53;;;5.27;;
18933;SDS011;9599;53.706;10.384;2023-04-01T16:24:38;8.40;;;5.67;;
18933;SDS011;9599;53.706;10.384;2023-04-01T16:27:12;6.60;;;3.67;;
18933;SDS011;9599;53.706;10.384;2023-04-01T16:29:45;11.73;;;5.00;;
18933;SDS011;9599;53.706;10.384;2023-04-01T16:35:13;10.97;;;5.30;;
18933;SDS011;9599;53.706;10.384;2023-04-01T16:38:01;8.47;;;5.17;;
18933;SDS011;9599;53.706;10.384;2023-04-01T16:40:37;8.03;;;4.80;;
18933;SDS011;9599;53.706;10.384;2023-04-01T16:43:13;6.77;;;3.93;;
18933;SDS011;9599;53.706;10.384;2023-04-01T16:45:59;9.10;;;4.93;;
18933;SDS011;9599;53.706;10.384;2023-04-01T16:48:52;5.40;;;3.23;;
18933;SDS011;9599;53.706;10.384;2023-04-01T16:51:33;7.10;;;4.50;;
18933;SDS011;9599;53.706;10.384;2023-04-01T16:54:06;5.87;;;4.47;;
18933;SDS011;9599;53.706;10.384;2023-04-01T16:56:43;6.93;;;3.87;;
18933;SDS011;9599;53.706;10.384;2023-04-01T16:59:15;6.27;;;4.27;;
18933;SDS011;9599;53.706;10.384;2023-04-01T17:01:51;10.07;;;4.60;;
18933;SDS011;9599;53.706;10.384;2023-04-01T17:04:25;7.73;;;3.63;;
18933;SDS011;9599;53.706;10.384;2023-04-01T17:07:01;4.23;;;3.10;;
18933;SDS011;9599;53.706;10.384;2023-04-01T17:09:44;8.93;;;4.07;;
18933;SDS011;9599;53.706;10.384;2023-04-01T17:12:20;5.50;;;3.57;;